sensor_id;sensor_type;location;lat;lon;timestamp;P1;durP1;ratioP1;P2;durP2;ratioP2
12818;SDS011;6474;53.474;9.894;2023-05-10T00:00:29;3.83;;;1.57;;
12818;SDS011;6474;53.474;9.894;2023-05-10T00:02:57;4.00;;;1.33;;
12818;SDS011;6474;53.474;9.894;2023-05-10T00:05:25;1.52;;;1.52;;
12818;SDS011;6474;53.474;9.894;2023-05-10T00:07:53;1.97;;;1.87;;
12818;SDS011;6474;53.474;9.894;2023-05-10T00:10:20;7.10;;;1.70;;
12818;SDS011;6474;53.474;9.894;2023-05-10T00:12:48;1.55;;;1.55;;
12818;SDS011;6474;53.474;9.894;2023-05-10T00:15:16;2.47;;;1.90;;
12818;SDS011;6474;53.474;9.894;2023-05-10T00:17:45;1.70;;;1.60;;
12818;SDS011;6474;53.474;9.894;2023-05-10T00:20:13;1.70;;;1.60;;
12818;SDS011;6474;53.474;9.894;2023-05-10T00:22:41;1.67;;;1.67;;
12818;SDS011;6474;53.474;9.894;2023-05-10T00:25:09;1.40;;;1.40;;
12818;SDS011;6474;53.474;9.894;2023-05-10T00:27:37;1.60;;;1.60;;
12818;SDS011;6474;53.474;9.894;2023-05-10T00:30:05;1.40;;;1.40;;
12818;SDS011;6474;53.474;9.894;2023-05-10T00:32:33;2.03;;;1.90;;
12818;SDS011;6474;53.474;9.894;2023-05-10T00:35:03;1.40;;;1.40;;
12818;SDS011;6474;53.474;9.894;2023-05-10T00:37:31;1.43;;;1.43;;
12818;SDS011;6474;53.474;9.894;2023-05-10T00:39:59;1.77;;;1.70;;
12818;SDS011;6474;53.474;9.894;2023-05-10T00:42:27;1.43;;;1.43;;
12818;SDS011;6474;53.474;9.894;2023-05-10T00:44:55;1.67;;;1.57;;
12818;SDS011;6474;53.474;9.894;2023-05-10T00:47:23;1.30;;;1.30;;
12818;SDS011;6474;53.474;9.894;2023-05-10T00:49:51;2.70;;;1.73;;
12818;SDS011;6474;53.474;9.894;2023-05-10T00:52:20;2.30;;;1.77;;
12818;SDS011;6474;53.474;9.894;2023-05-10T00:54:49;1.77;;;1.67;;
12818;SDS011;6474;53.474;9.894;2023-05-10T00:57:19;1.80;;;1.80;;
12818;SDS011;6474;53.474;9.894;2023-05-10T00:59:47;1.43;;;1.43;;
12818;SDS011;6474;53.474;9.894;2023-05-10T01:02:15;1.70;;;1.60;;
12818;SDS011;6474;53.474;9.894;2023-05-10T01:04:43;1.80;;;1.80;;
12818;SDS011;6474;53.474;9.894;2023-05-10T01:07:13;1.47;;;1.47;;
12818;SDS011;6474;53.474;9.894;2023-05-10T01:09:42;1.50;;;1.50;;
12818;SDS011;6474;53.474;9.894;2023-05-10T01:12:10;1.63;;;1.63;;
12818;SDS011;6474;53.474;9.894;2023-05-10T01:14:38;1.80;;;1.70;;
12818;SDS011;6474;53.474;9.894;2023-05-10T01:17:07;1.97;;;1.90;;
12818;SDS011;6474;53.474;9.894;2023-05-10T01:19:35;1.47;;;1.47;;
12818;SDS011;6474;53.474;9.894;2023-05-10T01:22:06;1.47;;;1.47;;
12818;SDS011;6474;53.474;9.894;2023-05-10T01:24:50;1.63;;;1.63;;
12818;SDS011;6474;53.474;9.894;2023-05-10T01:27:41;1.83;;;1.73;;
12818;SDS011;6474;53.474;9.894;2023-05-10T01:30:26;1.53;;;1.53;;
12818;SDS011;6474;53.474;9.894;2023-05-10T01:33:11;2.00;;;1.90;;
12818;SDS011;6474;53.474;9.894;2023-05-10T01:35:47;1.73;;;1.63;;
12818;SDS011;6474;53.474;9.894;2023-05-10T01:38:24;2.43;;;1.97;;
12818;SDS011;6474;53.474;9.894;2023-05-10T01:41:01;1.60;;;1.60;;
12818;SDS011;6474;53.474;9.894;2023-05-10T01:43:37;1.90;;;1.80;;
12818;SDS011;6474;53.474;9.894;2023-05-10T01:46:14;1.50;;;1.50;;
12818;SDS011;6474;53.474;9.894;2023-05-10T01:48:51;5.83;;;1.90;;
12818;SDS011;6474;53.474;9.894;2023-05-10T01:51:22;2.00;;;1.87;;
12818;SDS011;6474;53.474;9.894;2023-05-10T01:53:54;1.90;;;1.80;;
12818;SDS011;6474;53.474;9.894;2023-05-10T01:56:26;5.53;;;1.80;;
12818;SDS011;6474;53.474;9.894;2023-05-10T01:58:56;1.53;;;1.53;;
12818;SDS011;6474;53.474;9.894;2023-05-10T02:01:26;3.07;;;2.00;;
12818;SDS011;6474;53.474;9.894;2023-05-10T02:03:56;1.70;;;1.70;;
12818;SDS011;6474;53.474;9.894;2023-05-10T02:06:25;1.80;;;1.70;;
12818;SDS011;6474;53.474;9.894;2023-05-10T02:08:54;1.90;;;1.80;;
12818;SDS011;6474;53.474;9.894;2023-05-10T02:11:22;2.03;;;1.93;;
12818;SDS011;6474;53.474;9.894;2023-05-10T02:13:52;2.10;;;2.00;;
12818;SDS011;6474;53.474;9.894;2023-05-10T02:16:23;1.60;;;1.60;;
12818;SDS011;6474;53.474;9.894;2023-05-10T02:18:54;2.03;;;1.87;;
12818;SDS011;6474;53.474;9.894;2023-05-10T02:21:26;2.07;;;2.07;;
12818;SDS011;6474;53.474;9.894;2023-05-10T02:23:57;1.80;;;1.70;;
12818;SDS011;6474;53.474;9.894;2023-05-10T02:26:26;2.93;;;1.53;;
12818;SDS011;6474;53.474;9.894;2023-05-10T02:28:54;2.10;;;1.90;;
12818;SDS011;6474;53.474;9.894;2023-05-10T02:31:25;2.10;;;2.00;;
12818;SDS011;6474;53.474;9.894;2023-05-10T02:33:53;1.60;;;1.60;;
12818;SDS011;6474;53.474;9.894;2023-05-10T02:36:23;2.03;;;2.00;;
12818;SDS011;6474;53.474;9.894;2023-05-10T02:38:53;1.80;;;1.80;;
12818;SDS011;6474;53.474;9.894;2023-05-10T02:41:22;1.97;;;1.97;;
12818;SDS011;6474;53.474;9.894;2023-05-10T02:43:52;1.90;;;1.80;;
12818;SDS011;6474;53.474;9.894;2023-05-10T02:46:25;2.10;;;2.00;;
12818;SDS011;6474;53.474;9.894;2023-05-10T02:48:55;1.90;;;1.90;;
12818;SDS011;6474;53.474;9.894;2023-05-10T02:51:25;2.10;;;2.00;;
12818;SDS011;6474;53.474;9.894;2023-05-10T02:54:00;2.00;;;1.90;;
12818;SDS011;6474;53.474;9.894;2023-05-10T02:56:48;4.10;;;2.10;;
12818;SDS011;6474;53.474;9.894;2023-05-10T02:59:18;2.03;;;1.87;;
12818;SDS011;6474;53.474;9.894;2023-05-10T03:01:45;1.83;;;1.83;;
12818;SDS011;6474;53.474;9.894;2023-05-10T03:04:13;1.97;;;1.87;;
12818;SDS011;6474;53.474;9.894;2023-05-10T03:06:43;1.83;;;1.77;;
12818;SDS011;6474;53.474;9.894;2023-05-10T03:09:11;1.80;;;1.80;;
12818;SDS011;6474;53.474;9.894;2023-05-10T03:11:47;2.10;;;2.00;;
12818;SDS011;6474;53.474;9.894;2023-05-10T03:14:25;1.77;;;1.77;;
12818;SDS011;6474;53.474;9.894;2023-05-10T03:17:04;2.30;;;2.20;;
12818;SDS011;6474;53.474;9.894;2023-05-10T03:19:51;1.80;;;1.80;;
12818;SDS011;6474;53.474;9.894;2023-05-10T03:22:23;2.07;;;1.97;;
12818;SDS011;6474;53.474;9.894;2023-05-10T03:24:53;1.90;;;1.83;;
12818;SDS011;6474;53.474;9.894;2023-05-10T03:27:23;3.20;;;2.30;;
12818;SDS011;6474;53.474;9.894;2023-05-10T03:29:54;2.10;;;2.00;;
12818;SDS011;6474;53.474;9.894;2023-05-10T03:32:23;1.80;;;1.80;;
12818;SDS011;6474;53.474;9.894;2023-05-10T03:34:50;1.97;;;1.83;;
12818;SDS011;6474;53.474;9.894;2023-05-10T03:37:18;4.80;;;2.00;;
12818;SDS011;6474;53.474;9.894;2023-05-10T03:39:47;2.50;;;2.20;;
12818;SDS011;6474;53.474;9.894;2023-05-10T03:42:15;3.63;;;2.00;;
12818;SDS011;6474;53.474;9.894;2023-05-10T03:44:43;3.17;;;2.10;;
12818;SDS011;6474;53.474;9.894;2023-05-10T03:47:11;1.87;;;1.87;;
12818;SDS011;6474;53.474;9.894;2023-05-10T03:49:39;3.90;;;2.20;;
12818;SDS011;6474;53.474;9.894;2023-05-10T03:52:07;4.33;;;2.00;;
12818;SDS011;6474;53.474;9.894;2023-05-10T03:54:34;2.20;;;2.10;;
12818;SDS011;6474;53.474;9.894;2023-05-10T03:57:03;2.13;;;2.07;;
12818;SDS011;6474;53.474;9.894;2023-05-10T03:59:33;1.90;;;1.80;;
12818;SDS011;6474;53.474;9.894;2023-05-10T04:02:02;1.83;;;1.70;;
12818;SDS011;6474;53.474;9.894;2023-05-10T04:04:29;2.20;;;2.10;;
12818;SDS011;6474;53.474;9.894;2023-05-10T04:06:57;2.07;;;1.90;;
12818;SDS011;6474;53.474;9.894;2023-05-10T04:09:25;1.93;;;1.93;;
12818;SDS011;6474;53.474;9.894;2023-05-10T04:11:53;2.10;;;2.10;;
12818;SDS011;6474;53.474;9.894;2023-05-10T04:14:22;2.13;;;2.03;;
12818;SDS011;6474;53.474;9.894;2023-05-10T04:16:50;2.10;;;1.90;;
12818;SDS011;6474;53.474;9.894;2023-05-10T04:19:18;1.97;;;1.87;;
12818;SDS011;6474;53.474;9.894;2023-05-10T04:21:46;4.27;;;2.40;;
12818;SDS011;6474;53.474;9.894;2023-05-10T04:24:14;2.43;;;2.23;;
12818;SDS011;6474;53.474;9.894;2023-05-10T04:26:42;2.60;;;2.50;;
12818;SDS011;6474;53.474;9.894;2023-05-10T04:29:09;2.63;;;2.33;;
12818;SDS011;6474;53.474;9.894;2023-05-10T04:31:38;2.07;;;2.07;;
12818;SDS011;6474;53.474;9.894;2023-05-10T04:34:06;2.20;;;2.00;;
12818;SDS011;6474;53.474;9.894;2023-05-10T04:36:34;1.93;;;1.83;;
12818;SDS011;6474;53.474;9.894;2023-05-10T04:39:02;2.13;;;2.03;;
12818;SDS011;6474;53.474;9.894;2023-05-10T04:41:30;2.77;;;2.47;;
12818;SDS011;6474;53.474;9.894;2023-05-10T04:43:58;2.20;;;2.00;;
12818;SDS011;6474;53.474;9.894;2023-05-10T04:46:26;2.40;;;2.30;;
12818;SDS011;6474;53.474;9.894;2023-05-10T04:48:55;2.43;;;2.23;;
12818;SDS011;6474;53.474;9.894;2023-05-10T04:51:23;1.90;;;1.87;;
12818;SDS011;6474;53.474;9.894;2023-05-10T04:53:51;1.73;;;1.73;;
12818;SDS011;6474;53.474;9.894;2023-05-10T04:56:31;2.33;;;2.23;;
12818;SDS011;6474;53.474;9.894;2023-05-10T04:59:00;4.60;;;2.37;;
12818;SDS011;6474;53.474;9.894;2023-05-10T05:01:27;1.80;;;1.80;;
12818;SDS011;6474;53.474;9.894;2023-05-10T05:03:56;2.27;;;2.17;;
12818;SDS011;6474;53.474;9.894;2023-05-10T05:06:25;2.17;;;2.10;;
12818;SDS011;6474;53.474;9.894;2023-05-10T05:08:53;3.47;;;1.80;;
12818;SDS011;6474;53.474;9.894;2023-05-10T05:11:21;2.53;;;2.10;;
12818;SDS011;6474;53.474;9.894;2023-05-10T05:13:49;2.13;;;2.03;;
12818;SDS011;6474;53.474;9.894;2023-05-10T05:16:17;2.30;;;2.20;;
12818;SDS011;6474;53.474;9.894;2023-05-10T05:18:44;3.07;;;2.03;;
12818;SDS011;6474;53.474;9.894;2023-05-10T05:21:17;2.20;;;2.10;;
12818;SDS011;6474;53.474;9.894;2023-05-10T05:23:46;2.17;;;2.07;;
12818;SDS011;6474;53.474;9.894;2023-05-10T05:26:14;2.20;;;2.20;;
12818;SDS011;6474;53.474;9.894;2023-05-10T05:28:42;2.17;;;2.07;;
12818;SDS011;6474;53.474;9.894;2023-05-10T05:31:09;2.40;;;2.30;;
12818;SDS011;6474;53.474;9.894;2023-05-10T05:33:37;2.60;;;2.50;;
12818;SDS011;6474;53.474;9.894;2023-05-10T05:36:05;2.77;;;2.40;;
12818;SDS011;6474;53.474;9.894;2023-05-10T05:38:35;1.87;;;1.83;;
12818;SDS011;6474;53.474;9.894;2023-05-10T05:41:02;1.60;;;1.60;;
12818;SDS011;6474;53.474;9.894;2023-05-10T05:43:30;2.30;;;2.20;;
12818;SDS011;6474;53.474;9.894;2023-05-10T05:46:00;2.03;;;1.93;;
12818;SDS011;6474;53.474;9.894;2023-05-10T05:48:29;2.17;;;2.08;;
12818;SDS011;6474;53.474;9.894;2023-05-10T05:50:57;2.10;;;2.00;;
12818;SDS011;6474;53.474;9.894;2023-05-10T05:53:25;2.00;;;1.90;;
12818;SDS011;6474;53.474;9.894;2023-05-10T05:55:55;1.97;;;1.97;;
12818;SDS011;6474;53.474;9.894;2023-05-10T05:58:24;2.13;;;2.03;;
12818;SDS011;6474;53.474;9.894;2023-05-10T06:00:52;2.00;;;2.00;;
12818;SDS011;6474;53.474;9.894;2023-05-10T06:03:20;1.93;;;1.83;;
12818;SDS011;6474;53.474;9.894;2023-05-10T06:05:50;2.10;;;2.00;;
12818;SDS011;6474;53.474;9.894;2023-05-10T06:08:17;4.90;;;2.20;;
12818;SDS011;6474;53.474;9.894;2023-05-10T06:10:46;2.25;;;2.15;;
12818;SDS011;6474;53.474;9.894;2023-05-10T06:13:16;2.73;;;2.63;;
12818;SDS011;6474;53.474;9.894;2023-05-10T06:15:43;2.87;;;2.03;;
12818;SDS011;6474;53.474;9.894;2023-05-10T06:18:11;1.73;;;1.73;;
12818;SDS011;6474;53.474;9.894;2023-05-10T06:20:40;1.95;;;1.90;;
12818;SDS011;6474;53.474;9.894;2023-05-10T06:23:09;2.08;;;2.00;;
12818;SDS011;6474;53.474;9.894;2023-05-10T06:25:37;2.10;;;2.00;;
12818;SDS011;6474;53.474;9.894;2023-05-10T06:28:04;2.25;;;2.15;;
12818;SDS011;6474;53.474;9.894;2023-05-10T06:30:35;2.13;;;2.03;;
12818;SDS011;6474;53.474;9.894;2023-05-10T06:33:03;2.37;;;2.23;;
12818;SDS011;6474;53.474;9.894;2023-05-10T06:35:32;1.55;;;1.55;;
12818;SDS011;6474;53.474;9.894;2023-05-10T06:38:00;5.05;;;2.47;;
12818;SDS011;6474;53.474;9.894;2023-05-10T06:40:28;2.00;;;2.00;;
12818;SDS011;6474;53.474;9.894;2023-05-10T06:42:56;2.83;;;2.25;;
12818;SDS011;6474;53.474;9.894;2023-05-10T06:45:23;2.08;;;1.98;;
12818;SDS011;6474;53.474;9.894;2023-05-10T06:47:52;1.80;;;1.80;;
12818;SDS011;6474;53.474;9.894;2023-05-10T06:50:20;1.90;;;1.88;;
12818;SDS011;6474;53.474;9.894;2023-05-10T06:52:48;1.77;;;1.77;;
12818;SDS011;6474;53.474;9.894;2023-05-10T06:55:18;2.10;;;2.10;;
12818;SDS011;6474;53.474;9.894;2023-05-10T06:57:46;2.17;;;2.05;;
12818;SDS011;6474;53.474;9.894;2023-05-10T07:00:15;2.28;;;2.17;;
12818;SDS011;6474;53.474;9.894;2023-05-10T07:02:44;2.85;;;2.08;;
12818;SDS011;6474;53.474;9.894;2023-05-10T07:05:14;2.15;;;2.05;;
12818;SDS011;6474;53.474;9.894;2023-05-10T07:07:42;2.25;;;2.20;;
12818;SDS011;6474;53.474;9.894;2023-05-10T07:10:10;1.90;;;1.90;;
12818;SDS011;6474;53.474;9.894;2023-05-10T07:12:38;2.20;;;2.10;;
12818;SDS011;6474;53.474;9.894;2023-05-10T07:15:07;2.00;;;1.90;;
12818;SDS011;6474;53.474;9.894;2023-05-10T07:17:36;1.92;;;1.85;;
12818;SDS011;6474;53.474;9.894;2023-05-10T07:20:04;3.10;;;2.30;;
12818;SDS011;6474;53.474;9.894;2023-05-10T07:22:34;2.15;;;2.15;;
12818;SDS011;6474;53.474;9.894;2023-05-10T07:25:02;2.83;;;2.10;;
12818;SDS011;6474;53.474;9.894;2023-05-10T07:27:30;2.28;;;2.17;;
12818;SDS011;6474;53.474;9.894;2023-05-10T07:29:58;2.35;;;2.25;;
12818;SDS011;6474;53.474;9.894;2023-05-10T07:32:27;1.75;;;1.75;;
12818;SDS011;6474;53.474;9.894;2023-05-10T07:34:58;2.03;;;1.98;;
12818;SDS011;6474;53.474;9.894;2023-05-10T07:37:25;2.30;;;2.20;;
12818;SDS011;6474;53.474;9.894;2023-05-10T07:39:54;4.10;;;2.38;;
12818;SDS011;6474;53.474;9.894;2023-05-10T07:42:22;3.25;;;1.95;;
12818;SDS011;6474;53.474;9.894;2023-05-10T07:44:50;2.20;;;2.08;;
12818;SDS011;6474;53.474;9.894;2023-05-10T07:47:18;5.20;;;2.35;;
12818;SDS011;6474;53.474;9.894;2023-05-10T07:49:46;2.47;;;2.30;;
12818;SDS011;6474;53.474;9.894;2023-05-10T07:52:14;2.40;;;2.30;;
12818;SDS011;6474;53.474;9.894;2023-05-10T07:54:41;2.08;;;2.00;;
12818;SDS011;6474;53.474;9.894;2023-05-10T07:57:12;2.55;;;2.45;;
12818;SDS011;6474;53.474;9.894;2023-05-10T07:59:43;3.15;;;2.05;;
12818;SDS011;6474;53.474;9.894;2023-05-10T08:02:11;2.30;;;2.20;;
12818;SDS011;6474;53.474;9.894;2023-05-10T08:04:39;6.88;;;2.63;;
12818;SDS011;6474;53.474;9.894;2023-05-10T08:07:07;2.25;;;2.15;;
12818;SDS011;6474;53.474;9.894;2023-05-10T08:09:35;2.30;;;2.15;;
12818;SDS011;6474;53.474;9.894;2023-05-10T08:12:03;2.17;;;2.10;;
12818;SDS011;6474;53.474;9.894;2023-05-10T08:14:33;2.40;;;2.22;;
12818;SDS011;6474;53.474;9.894;2023-05-10T08:17:02;2.10;;;2.10;;
12818;SDS011;6474;53.474;9.894;2023-05-10T08:19:30;2.80;;;2.60;;
12818;SDS011;6474;53.474;9.894;2023-05-10T08:21:58;2.03;;;2.03;;
12818;SDS011;6474;53.474;9.894;2023-05-10T08:24:26;2.92;;;2.33;;
12818;SDS011;6474;53.474;9.894;2023-05-10T08:26:53;2.22;;;2.15;;
12818;SDS011;6474;53.474;9.894;2023-05-10T08:29:21;2.67;;;2.53;;
12818;SDS011;6474;53.474;9.894;2023-05-10T08:31:53;2.58;;;2.40;;
12818;SDS011;6474;53.474;9.894;2023-05-10T08:34:20;2.45;;;2.35;;
12818;SDS011;6474;53.474;9.894;2023-05-10T08:36:48;2.15;;;2.15;;
12818;SDS011;6474;53.474;9.894;2023-05-10T08:39:16;2.65;;;2.55;;
12818;SDS011;6474;53.474;9.894;2023-05-10T08:41:55;2.53;;;2.35;;
12818;SDS011;6474;53.474;9.894;2023-05-10T08:44:28;2.53;;;2.42;;
12818;SDS011;6474;53.474;9.894;2023-05-10T08:46:59;2.22;;;2.17;;
12818;SDS011;6474;53.474;9.894;2023-05-10T08:49:29;2.47;;;2.42;;
12818;SDS011;6474;53.474;9.894;2023-05-10T08:51:59;2.30;;;2.15;;
12818;SDS011;6474;53.474;9.894;2023-05-10T08:54:31;2.38;;;2.28;;
12818;SDS011;6474;53.474;9.894;2023-05-10T08:57:00;2.78;;;2.60;;
12818;SDS011;6474;53.474;9.894;2023-05-10T08:59:28;2.42;;;2.38;;
12818;SDS011;6474;53.474;9.894;2023-05-10T09:01:58;2.22;;;2.22;;
12818;SDS011;6474;53.474;9.894;2023-05-10T09:04:27;2.47;;;2.47;;
12818;SDS011;6474;53.474;9.894;2023-05-10T09:06:55;2.10;;;2.10;;
12818;SDS011;6474;53.474;9.894;2023-05-10T09:09:23;3.08;;;2.72;;
12818;SDS011;6474;53.474;9.894;2023-05-10T09:11:52;7.05;;;3.13;;
12818;SDS011;6474;53.474;9.894;2023-05-10T09:14:21;2.88;;;2.72;;
12818;SDS011;6474;53.474;9.894;2023-05-10T09:16:51;2.67;;;2.47;;
12818;SDS011;6474;53.474;9.894;2023-05-10T09:19:22;2.65;;;2.20;;
12818;SDS011;6474;53.474;9.894;2023-05-10T09:21:50;4.07;;;2.35;;
12818;SDS011;6474;53.474;9.894;2023-05-10T09:24:18;2.28;;;2.28;;
12818;SDS011;6474;53.474;9.894;2023-05-10T09:26:46;2.95;;;2.70;;
12818;SDS011;6474;53.474;9.894;2023-05-10T09:29:15;2.38;;;2.28;;
12818;SDS011;6474;53.474;9.894;2023-05-10T09:31:44;3.15;;;2.70;;
12818;SDS011;6474;53.474;9.894;2023-05-10T09:34:17;2.42;;;2.33;;
12818;SDS011;6474;53.474;9.894;2023-05-10T09:36:55;3.60;;;2.10;;
12818;SDS011;6474;53.474;9.894;2023-05-10T09:39:31;4.97;;;2.80;;
12818;SDS011;6474;53.474;9.894;2023-05-10T09:41:59;2.47;;;2.30;;
12818;SDS011;6474;53.474;9.894;2023-05-10T09:44:30;2.58;;;2.47;;
12818;SDS011;6474;53.474;9.894;2023-05-10T09:46:58;4.22;;;2.78;;
12818;SDS011;6474;53.474;9.894;2023-05-10T09:49:26;3.20;;;3.10;;
12818;SDS011;6474;53.474;9.894;2023-05-10T09:52:00;2.83;;;2.72;;
12818;SDS011;6474;53.474;9.894;2023-05-10T09:54:29;2.33;;;2.33;;
12818;SDS011;6474;53.474;9.894;2023-05-10T09:56:58;2.80;;;2.70;;
12818;SDS011;6474;53.474;9.894;2023-05-10T09:59:26;2.40;;;2.30;;
12818;SDS011;6474;53.474;9.894;2023-05-10T10:01:55;2.85;;;2.75;;
12818;SDS011;6474;53.474;9.894;2023-05-10T10:04:24;2.90;;;2.70;;
12818;SDS011;6474;53.474;9.894;2023-05-10T10:07:00;2.63;;;2.53;;
12818;SDS011;6474;53.474;9.894;2023-05-10T10:09:30;2.67;;;2.58;;
12818;SDS011;6474;53.474;9.894;2023-05-10T10:11:59;2.55;;;2.45;;
12818;SDS011;6474;53.474;9.894;2023-05-10T10:14:28;4.75;;;2.60;;
12818;SDS011;6474;53.474;9.894;2023-05-10T10:16:56;2.80;;;2.70;;
12818;SDS011;6474;53.474;9.894;2023-05-10T10:19:30;2.97;;;2.33;;
12818;SDS011;6474;53.474;9.894;2023-05-10T10:22:01;2.75;;;2.65;;
12818;SDS011;6474;53.474;9.894;2023-05-10T10:24:29;3.65;;;3.08;;
12818;SDS011;6474;53.474;9.894;2023-05-10T10:26:57;3.00;;;2.80;;
12818;SDS011;6474;53.474;9.894;2023-05-10T10:29:32;2.53;;;2.33;;
12818;SDS011;6474;53.474;9.894;2023-05-10T10:32:07;2.90;;;2.70;;
12818;SDS011;6474;53.474;9.894;2023-05-10T10:34:39;3.10;;;2.90;;
12818;SDS011;6474;53.474;9.894;2023-05-10T10:37:08;3.53;;;3.33;;
12818;SDS011;6474;53.474;9.894;2023-05-10T10:39:36;3.10;;;3.00;;
12818;SDS011;6474;53.474;9.894;2023-05-10T10:42:04;2.70;;;2.50;;
12818;SDS011;6474;53.474;9.894;2023-05-10T10:44:36;3.30;;;3.13;;
12818;SDS011;6474;53.474;9.894;2023-05-10T10:47:06;3.28;;;3.08;;
12818;SDS011;6474;53.474;9.894;2023-05-10T10:49:37;3.63;;;3.38;;
12818;SDS011;6474;53.474;9.894;2023-05-10T10:52:14;2.90;;;2.78;;
12818;SDS011;6474;53.474;9.894;2023-05-10T10:54:58;3.10;;;2.90;;
12818;SDS011;6474;53.474;9.894;2023-05-10T10:57:28;3.03;;;2.92;;
12818;SDS011;6474;53.474;9.894;2023-05-10T11:00:18;3.15;;;2.95;;
12818;SDS011;6474;53.474;9.894;2023-05-10T11:02:51;3.83;;;3.53;;
12818;SDS011;6474;53.474;9.894;2023-05-10T11:08:14;2.90;;;2.80;;
12818;SDS011;6474;53.474;9.894;2023-05-10T11:10:51;3.70;;;3.15;;
12818;SDS011;6474;53.474;9.894;2023-05-10T11:13:28;3.22;;;3.03;;
12818;SDS011;6474;53.474;9.894;2023-05-10T11:15:57;3.20;;;2.70;;
12818;SDS011;6474;53.474;9.894;2023-05-10T11:18:26;3.22;;;3.03;;
12818;SDS011;6474;53.474;9.894;2023-05-10T11:20:55;3.80;;;3.50;;
12818;SDS011;6474;53.474;9.894;2023-05-10T11:23:30;4.78;;;3.35;;
12818;SDS011;6474;53.474;9.894;2023-05-10T11:25:59;3.40;;;3.20;;
12818;SDS011;6474;53.474;9.894;2023-05-10T11:28:27;3.03;;;2.83;;
12818;SDS011;6474;53.474;9.894;2023-05-10T11:30:55;3.10;;;2.90;;
12818;SDS011;6474;53.474;9.894;2023-05-10T11:33:24;3.00;;;2.90;;
12818;SDS011;6474;53.474;9.894;2023-05-10T11:35:51;3.58;;;3.38;;
12818;SDS011;6474;53.474;9.894;2023-05-10T11:38:19;3.55;;;3.25;;
12818;SDS011;6474;53.474;9.894;2023-05-10T11:40:50;3.30;;;3.15;;
12818;SDS011;6474;53.474;9.894;2023-05-10T11:43:19;4.03;;;3.70;;
12818;SDS011;6474;53.474;9.894;2023-05-10T11:45:54;3.65;;;3.35;;
12818;SDS011;6474;53.474;9.894;2023-05-10T11:48:22;3.08;;;2.97;;
12818;SDS011;6474;53.474;9.894;2023-05-10T11:50:50;2.80;;;2.70;;
12818;SDS011;6474;53.474;9.894;2023-05-10T11:53:19;2.88;;;2.60;;
12818;SDS011;6474;53.474;9.894;2023-05-10T11:55:51;3.33;;;3.03;;
12818;SDS011;6474;53.474;9.894;2023-05-10T11:58:18;3.30;;;2.85;;
12818;SDS011;6474;53.474;9.894;2023-05-10T12:00:47;2.90;;;2.70;;
12818;SDS011;6474;53.474;9.894;2023-05-10T12:03:16;2.55;;;2.45;;
12818;SDS011;6474;53.474;9.894;2023-05-10T12:05:44;2.67;;;2.58;;
12818;SDS011;6474;53.474;9.894;2023-05-10T12:08:13;2.38;;;2.33;;
12818;SDS011;6474;53.474;9.894;2023-05-10T12:10:41;2.50;;;2.40;;
12818;SDS011;6474;53.474;9.894;2023-05-10T12:13:14;2.33;;;2.22;;
12818;SDS011;6474;53.474;9.894;2023-05-10T12:15:42;2.50;;;2.40;;
12818;SDS011;6474;53.474;9.894;2023-05-10T12:18:10;2.88;;;2.67;;
12818;SDS011;6474;53.474;9.894;2023-05-10T12:20:39;2.42;;;2.33;;
12818;SDS011;6474;53.474;9.894;2023-05-10T12:23:08;3.67;;;3.38;;
12818;SDS011;6474;53.474;9.894;2023-05-10T12:25:37;2.80;;;2.70;;
12818;SDS011;6474;53.474;9.894;2023-05-10T12:28:06;2.40;;;2.30;;
12818;SDS011;6474;53.474;9.894;2023-05-10T12:30:36;2.60;;;2.50;;
12818;SDS011;6474;53.474;9.894;2023-05-10T12:33:07;2.95;;;2.85;;
12818;SDS011;6474;53.474;9.894;2023-05-10T12:35:43;2.47;;;2.38;;
12818;SDS011;6474;53.474;9.894;2023-05-10T12:38:24;2.40;;;2.30;;
12818;SDS011;6474;53.474;9.894;2023-05-10T12:40:55;2.78;;;2.67;;
12818;SDS011;6474;53.474;9.894;2023-05-10T12:43:23;2.50;;;2.38;;
12818;SDS011;6474;53.474;9.894;2023-05-10T12:45:52;2.45;;;2.35;;
12818;SDS011;6474;53.474;9.894;2023-05-10T12:48:20;3.28;;;3.08;;
12818;SDS011;6474;53.474;9.894;2023-05-10T12:50:48;2.83;;;2.60;;
12818;SDS011;6474;53.474;9.894;2023-05-10T12:53:16;2.78;;;2.67;;
12818;SDS011;6474;53.474;9.894;2023-05-10T12:55:44;2.97;;;2.88;;
12818;SDS011;6474;53.474;9.894;2023-05-10T12:58:12;2.50;;;2.40;;
12818;SDS011;6474;53.474;9.894;2023-05-10T13:01:02;3.03;;;2.92;;
12818;SDS011;6474;53.474;9.894;2023-05-10T13:03:30;3.10;;;3.00;;
12818;SDS011;6474;53.474;9.894;2023-05-10T13:05:58;2.65;;;2.50;;
12818;SDS011;6474;53.474;9.894;2023-05-10T13:08:26;2.90;;;2.65;;
12818;SDS011;6474;53.474;9.894;2023-05-10T13:10:59;3.53;;;3.22;;
12818;SDS011;6474;53.474;9.894;2023-05-10T13:13:27;2.60;;;2.50;;
12818;SDS011;6474;53.474;9.894;2023-05-10T13:15:54;2.70;;;2.60;;
12818;SDS011;6474;53.474;9.894;2023-05-10T13:18:24;3.88;;;3.00;;
12818;SDS011;6474;53.474;9.894;2023-05-10T13:20:53;3.42;;;3.13;;
12818;SDS011;6474;53.474;9.894;2023-05-10T13:23:21;3.00;;;2.90;;
12818;SDS011;6474;53.474;9.894;2023-05-10T13:25:49;3.08;;;2.92;;
12818;SDS011;6474;53.474;9.894;2023-05-10T13:28:17;2.53;;;2.42;;
12818;SDS011;6474;53.474;9.894;2023-05-10T13:30:45;2.70;;;2.60;;
12818;SDS011;6474;53.474;9.894;2023-05-10T13:33:12;2.70;;;2.60;;
12818;SDS011;6474;53.474;9.894;2023-05-10T13:35:42;2.88;;;2.78;;
12818;SDS011;6474;53.474;9.894;2023-05-10T13:38:09;3.08;;;2.97;;
12818;SDS011;6474;53.474;9.894;2023-05-10T13:40:37;2.95;;;2.75;;
12818;SDS011;6474;53.474;9.894;2023-05-10T13:43:05;2.65;;;2.55;;
12818;SDS011;6474;53.474;9.894;2023-05-10T13:45:33;2.80;;;2.70;;
12818;SDS011;6474;53.474;9.894;2023-05-10T13:48:00;3.25;;;3.05;;
12818;SDS011;6474;53.474;9.894;2023-05-10T13:50:28;2.88;;;2.78;;
12818;SDS011;6474;53.474;9.894;2023-05-10T13:52:58;7.53;;;2.95;;
12818;SDS011;6474;53.474;9.894;2023-05-10T13:55:26;3.25;;;3.05;;
12818;SDS011;6474;53.474;9.894;2023-05-10T13:57:54;2.95;;;2.75;;
12818;SDS011;6474;53.474;9.894;2023-05-10T14:00:22;2.80;;;2.70;;
12818;SDS011;6474;53.474;9.894;2023-05-10T14:02:50;3.00;;;2.90;;
12818;SDS011;6474;53.474;9.894;2023-05-10T14:05:19;2.88;;;2.78;;
12818;SDS011;6474;53.474;9.894;2023-05-10T14:07:51;2.83;;;2.72;;
12818;SDS011;6474;53.474;9.894;2023-05-10T14:10:21;2.40;;;2.33;;
12818;SDS011;6474;53.474;9.894;2023-05-10T14:12:49;3.00;;;2.78;;
12818;SDS011;6474;53.474;9.894;2023-05-10T14:15:17;2.53;;;2.42;;
12818;SDS011;6474;53.474;9.894;2023-05-10T14:17:45;2.92;;;2.67;;
12818;SDS011;6474;53.474;9.894;2023-05-10T14:20:13;2.80;;;2.70;;
12818;SDS011;6474;53.474;9.894;2023-05-10T14:22:41;2.92;;;2.83;;
12818;SDS011;6474;53.474;9.894;2023-05-10T14:25:09;3.08;;;2.90;;
12818;SDS011;6474;53.474;9.894;2023-05-10T14:27:38;2.88;;;2.67;;
12818;SDS011;6474;53.474;9.894;2023-05-10T14:30:07;2.60;;;2.50;;
12818;SDS011;6474;53.474;9.894;2023-05-10T14:32:35;3.03;;;2.83;;
12818;SDS011;6474;53.474;9.894;2023-05-10T14:35:04;2.60;;;2.50;;
12818;SDS011;6474;53.474;9.894;2023-05-10T14:37:35;2.58;;;2.47;;
12818;SDS011;6474;53.474;9.894;2023-05-10T14:40:04;2.50;;;2.50;;
12818;SDS011;6474;53.474;9.894;2023-05-10T14:42:33;2.67;;;2.58;;
12818;SDS011;6474;53.474;9.894;2023-05-10T14:45:02;2.42;;;2.33;;
12818;SDS011;6474;53.474;9.894;2023-05-10T14:47:31;2.83;;;2.63;;
12818;SDS011;6474;53.474;9.894;2023-05-10T14:49:58;2.35;;;2.25;;
12818;SDS011;6474;53.474;9.894;2023-05-10T14:52:26;2.15;;;2.15;;
12818;SDS011;6474;53.474;9.894;2023-05-10T14:54:54;2.55;;;2.45;;
12818;SDS011;6474;53.474;9.894;2023-05-10T14:57:23;3.67;;;2.50;;
12818;SDS011;6474;53.474;9.894;2023-05-10T14:59:51;2.72;;;2.53;;
12818;SDS011;6474;53.474;9.894;2023-05-10T15:02:20;3.28;;;2.53;;
12818;SDS011;6474;53.474;9.894;2023-05-10T15:04:49;2.75;;;2.65;;
12818;SDS011;6474;53.474;9.894;2023-05-10T15:07:18;2.38;;;2.28;;
12818;SDS011;6474;53.474;9.894;2023-05-10T15:09:46;2.45;;;2.35;;
12818;SDS011;6474;53.474;9.894;2023-05-10T15:12:13;2.35;;;2.25;;
12818;SDS011;6474;53.474;9.894;2023-05-10T15:14:41;5.68;;;2.42;;
12818;SDS011;6474;53.474;9.894;2023-05-10T15:17:09;2.42;;;2.33;;